Time;durP1;ratioP1;P1;durP2;ratioP2;P2;SDS_P1;SDS_P2;PMS_P1;PMS_P2;Temp;Humidity;BMP_temperature;BMP_pressure;BME280_temperature;BME280_humidity;BME280_pressure;Samples;Min_cycle;Max_cycle;Signal;HPM_P1;HPM_P2
2023/06/25 00:00:19;;;;;;;10.73;9.47;;;17.70;92.10;;;;;;5109765;27;20466;-61
2023/06/25 00:02:47;;;;;;;11.77;9.60;;;17.80;92.00;;;;;;5099348;27;21002;-61
2023/06/25 00:05:14;;;;;;;10.10;9.10;;;17.90;92.10;;;;;;5094752;27;20475;-62
2023/06/25 00:07:41;;;;;;;8.77;7.90;;;17.90;92.10;;;;;;5106607;27;20485;-61
2023/06/25 00:10:09;;;;;;;22.87;10.10;;;18.00;91.90;;;;;;5109967;27;20474;-62
2023/06/25 00:12:35;;;;;;;8.57;7.80;;;18.00;91.60;;;;;;5095951;27;20480;-61
2023/06/25 00:15:02;;;;;;;11.27;9.73;;;17.90;92.00;;;;;;5090552;27;20468;-61
2023/06/25 00:17:29;;;;;;;17.57;9.47;;;17.80;91.90;;;;;;5103364;27;20924;-60
2023/06/25 00:19:59;;;;;;;10.77;9.40;;;17.70;91.90;;;;;;5106969;27;20480;-61
2023/06/25 00:22:26;;;;;;;10.10;9.30;;;17.60;92.10;;;;;;5074492;27;20465;-61
2023/06/25 00:24:52;;;;;;;22.27;10.23;;;17.40;92.10;;;;;;5091089;27;20548;-61
2023/06/25 00:27:19;;;;;;;10.43;9.33;;;17.40;92.30;;;;;;5077992;27;20479;-61
2023/06/25 00:29:46;;;;;;;10.23;9.10;;;17.30;92.60;;;;;;5086420;27;20486;-61
2023/06/25 00:32:15;;;;;;;10.80;9.50;;;17.20;92.40;;;;;;5087238;27;20470;-61
2023/06/25 00:34:41;;;;;;;9.90;8.90;;;17.10;92.30;;;;;;5061496;28;20483;-61
2023/06/25 00:37:16;;;;;;;11.00;10.00;;;17.10;92.50;;;;;;5092363;27;20463;-61
2023/06/25 00:39:44;;;;;;;11.63;8.90;;;17.10;92.70;;;;;;5082556;27;20489;-61
2023/06/25 00:42:11;;;;;;;9.80;8.83;;;17.10;92.80;;;;;;5093088;27;20985;-61
2023/06/25 00:44:40;;;;;;;9.37;8.47;;;17.20;93.00;;;;;;5089356;27;20492;-61
2023/06/25 00:47:12;;;;;;;10.80;9.30;;;17.20;92.80;;;;;;5101592;27;20481;-61
2023/06/25 00:49:39;;;;;;;12.43;9.03;;;17.30;92.60;;;;;;5101813;27;20615;-61
2023/06/25 00:52:08;;;;;;;9.10;8.30;;;17.30;92.50;;;;;;5100866;27;20474;-61
2023/06/25 00:54:38;;;;;;;10.93;8.63;;;17.20;92.80;;;;;;5103295;27;20485;-62
2023/06/25 00:57:06;;;;;;;9.63;8.60;;;17.10;92.60;;;;;;5091948;27;20469;-61
2023/06/25 00:59:33;;;;;;;12.30;9.30;;;17.10;92.50;;;;;;5102093;27;20857;-61
2023/06/25 01:02:09;;;;;;;9.70;8.67;;;17.10;92.50;;;;;;5083989;27;20478;-61
2023/06/25 01:04:41;;;;;;;11.83;9.87;;;16.90;92.70;;;;;;5057138;28;20462;-61
2023/06/25 01:07:16;;;;;;;10.93;8.63;;;16.90;92.70;;;;;;5074274;28;20486;-61
2023/06/25 01:09:47;;;;;;;14.47;10.83;;;16.80;92.80;;;;;;5090881;27;20496;-60
2023/06/25 01:12:14;;;;;;;12.03;8.93;;;16.60;93.20;;;;;;5074839;27;21196;-61
2023/06/25 01:14:41;;;;;;;14.07;10.67;;;16.40;93.30;;;;;;5102028;27;20467;-61
2023/06/25 01:17:09;;;;;;;14.53;10.10;;;16.40;93.40;;;;;;5097033;27;20989;-61
2023/06/25 01:19:36;;;;;;;16.00;11.20;;;16.40;93.20;;;;;;5089457;27;20512;-61
2023/06/25 01:22:04;;;;;;;11.43;10.23;;;16.50;93.60;;;;;;5095584;27;20497;-61
2023/06/25 01:24:34;;;;;;;10.90;9.57;;;16.50;93.40;;;;;;5107148;27;20574;-61
2023/06/25 01:27:02;;;;;;;10.13;9.10;;;16.60;93.40;;;;;;5091625;27;21141;-61
2023/06/25 01:29:29;;;;;;;13.20;10.73;;;16.60;93.40;;;;;;5091660;27;20475;-61
2023/06/25 01:31:57;;;;;;;15.67;11.43;;;16.60;93.20;;;;;;5104943;27;20484;-61
2023/06/25 01:34:24;;;;;;;12.60;9.80;;;16.60;93.00;;;;;;5104824;27;20740;-60
2023/06/25 01:36:51;;;;;;;13.57;11.00;;;16.50;93.20;;;;;;5074126;27;20911;-60
2023/06/25 01:39:18;;;;;;;12.97;10.40;;;16.40;93.30;;;;;;5068325;28;20486;-61
2023/06/25 01:41:47;;;;;;;14.23;10.90;;;16.40;93.10;;;;;;5070677;28;21025;-62
2023/06/25 01:44:16;;;;;;;12.47;10.20;;;16.40;93.20;;;;;;5069417;28;21061;-62
2023/06/25 01:46:43;;;;;;;13.40;10.10;;;16.40;93.00;;;;;;5040105;28;21037;-61
2023/06/25 01:49:09;;;;;;;13.50;11.20;;;16.40;93.10;;;;;;5060174;28;21049;-61
2023/06/25 01:51:37;;;;;;;11.53;9.70;;;16.40;93.40;;;;;;5072370;28;20478;-60
2023/06/25 01:54:04;;;;;;;13.77;10.33;;;16.40;93.10;;;;;;5064489;27;20474;-61
2023/06/25 01:56:31;;;;;;;14.13;10.67;;;16.40;93.20;;;;;;5087181;27;21057;-61
2023/06/25 01:58:59;;;;;;;13.33;9.97;;;16.20;93.40;;;;;;5083667;27;20487;-61
2023/06/25 02:01:26;;;;;;;19.17;9.97;;;16.00;93.60;;;;;;5043371;27;20485;-61
2023/06/25 02:03:52;;;;;;;12.53;10.90;;;15.90;93.70;;;;;;5087222;27;20488;-61
2023/06/25 02:06:19;;;;;;;12.67;9.73;;;15.90;93.60;;;;;;5084632;28;21189;-61
2023/06/25 02:08:46;;;;;;;11.43;9.77;;;15.90;93.50;;;;;;5086793;28;20982;-61
2023/06/25 02:11:13;;;;;;;11.73;9.97;;;15.80;93.40;;;;;;5079581;27;20551;-61
2023/06/25 02:13:39;;;;;;;20.20;13.63;;;15.70;93.70;;;;;;5053191;28;20878;-61
2023/06/25 02:16:07;;;;;;;12.73;11.20;;;15.70;93.80;;;;;;5072010;27;20871;-61
2023/06/25 02:18:35;;;;;;;11.77;9.70;;;15.70;93.90;;;;;;5053331;28;20478;-61
2023/06/25 02:21:02;;;;;;;15.37;12.07;;;15.60;93.80;;;;;;5045346;28;20477;-61
2023/06/25 02:23:29;;;;;;;34.60;12.20;;;15.60;94.10;;;;;;5080791;28;20747;-60
2023/06/25 02:25:56;;;;;;;20.33;13.60;;;;;;;;;;5070674;28;20542;-61
2023/06/25 02:28:23;;;;;;;18.77;13.47;;;15.60;93.90;;;;;;5059360;28;20572;-61
2023/06/25 02:30:49;;;;;;;18.63;13.40;;;15.60;93.70;;;;;;5064404;28;20537;-60
2023/06/25 02:33:17;;;;;;;19.20;13.03;;;15.60;94.00;;;;;;5069381;27;20491;-60
2023/06/25 02:35:44;;;;;;;27.70;16.13;;;15.40;94.20;;;;;;5072527;28;20483;-60
2023/06/25 02:38:11;;;;;;;26.17;11.93;;;15.30;94.20;;;;;;5077060;28;20505;-60
2023/06/25 02:40:38;;;;;;;18.37;12.17;;;15.30;95.20;;;;;;5075578;28;20482;-60
2023/06/25 02:43:04;;;;;;;19.80;13.80;;;15.30;95.60;;;;;;5069355;28;20478;-60
2023/06/25 02:45:31;;;;;;;21.03;14.00;;;13.60;95.50;;;;;;5058855;28;20483;-61
2023/06/25 02:47:58;;;;;;;17.37;12.77;;;15.00;96.20;;;;;;5062207;28;20478;-61
2023/06/25 02:50:26;;;;;;;17.07;12.87;;;15.00;96.10;;;;;;5078301;28;21107;-61
2023/06/25 02:52:52;;;;;;;25.27;13.40;;;14.90;96.00;;;;;;5064085;28;20485;-61
2023/06/25 02:55:19;;;;;;;23.00;15.60;;;14.90;96.00;;;;;;5085530;28;20475;-61
2023/06/25 02:57:46;;;;;;;20.20;12.50;;;14.90;95.60;;;;;;5082976;27;20885;-61
2023/06/25 03:00:13;;;;;;;14.60;11.33;;;14.90;95.10;;;;;;5072815;28;20853;-61
2023/06/25 03:02:40;;;;;;;21.47;14.30;;;14.90;95.10;;;;;;5070153;28;21029;-61
2023/06/25 03:05:07;;;;;;;17.50;12.80;;;15.00;95.00;;;;;;5069307;27;20967;-61
2023/06/25 03:07:36;;;;;;;16.00;12.43;;;15.10;95.30;;;;;;5073729;27;20742;-60
2023/06/25 03:10:03;;;;;;;19.20;12.87;;;15.10;95.30;;;;;;5085835;28;20485;-61
2023/06/25 03:12:29;;;;;;;21.03;12.60;;;15.20;95.10;;;;;;5085020;27;20514;-61
2023/06/25 03:14:56;;;;;;;37.97;14.53;;;15.30;94.80;;;;;;5071081;28;20496;-61
2023/06/25 03:17:23;;;;;;;17.93;12.20;;;15.30;94.80;;;;;;5073107;28;20485;-61
2023/06/25 03:19:49;;;;;;;18.00;12.20;;;15.30;94.60;;;;;;5073615;28;20482;-61
2023/06/25 03:22:16;;;;;;;17.43;11.70;;;15.30;94.20;;;;;;5074695;28;20482;-61
2023/06/25 03:24:44;;;;;;;21.43;12.57;;;15.10;94.50;;;;;;5072519;28;21012;-61
2023/06/25 03:27:11;;;;;;;15.07;10.33;;;15.00;94.70;;;;;;5077455;28;20474;-61
2023/06/25 03:29:37;;;;;;;29.83;12.40;;;14.90;94.70;;;;;;5077952;28;20473;-61
2023/06/25 03:32:05;;;;;;;16.53;12.00;;;14.80;94.80;;;;;;5069767;28;20489;-60
2023/06/25 03:34:32;;;;;;;20.83;12.80;;;14.80;95.00;;;;;;5062588;28;21106;-61
2023/06/25 03:36:59;;;;;;;28.10;13.13;;;14.80;95.10;;;;;;5065117;28;20489;-61
2023/06/25 03:39:26;;;;;;;21.00;12.70;;;14.80;95.00;;;;;;5059477;27;20474;-60
2023/06/25 03:41:54;;;;;;;20.47;14.30;;;14.90;95.30;;;;;;5074779;28;20884;-60
2023/06/25 03:44:20;;;;;;;20.70;14.10;;;14.90;95.30;;;;;;5077467;28;20809;-60
2023/06/25 03:46:47;;;;;;;17.57;12.17;;;14.90;95.30;;;;;;5066941;28;20515;-61
2023/06/25 03:49:14;;;;;;;19.80;13.70;;;15.00;95.40;;;;;;5081425;27;20854;-61
2023/06/25 03:51:40;;;;;;;35.27;13.37;;;15.00;95.20;;;;;;5077199;28;20877;-61
2023/06/25 03:54:07;;;;;;;15.53;12.20;;;15.10;95.00;;;;;;5074160;27;21430;-60
2023/06/25 03:56:34;;;;;;;19.67;12.90;;;15.00;95.10;;;;;;5075231;28;20482;-61
2023/06/25 03:59:02;;;;;;;19.80;13.43;;;15.00;94.80;;;;;;5083081;27;20489;-61
2023/06/25 04:01:28;;;;;;;20.37;13.40;;;15.00;94.90;;;;;;5071163;27;20491;-61
2023/06/25 04:03:55;;;;;;;21.57;13.53;;;15.00;94.70;;;;;;5071164;28;20484;-61
2023/06/25 04:06:22;;;;;;;20.50;12.83;;;14.90;94.80;;;;;;5062204;27;20524;-60
2023/06/25 04:08:48;;;;;;;20.37;12.10;;;14.90;94.70;;;;;;5090946;27;20613;-61
2023/06/25 04:11:15;;;;;;;23.20;12.80;;;14.90;94.70;;;;;;5070919;28;21305;-60
2023/06/25 04:13:42;;;;;;;23.07;14.50;;;14.90;94.50;;;;;;5070767;28;20523;-60
2023/06/25 04:16:10;;;;;;;18.97;13.07;;;14.90;94.50;;;;;;5075848;27;20485;-61
2023/06/25 04:18:37;;;;;;;20.17;12.57;;;14.90;94.80;;;;;;5063360;28;20474;-61
2023/06/25 04:21:04;;;;;;;11.37;10.20;;;15.00;94.90;;;;;;5048918;28;20490;-61
2023/06/25 04:23:31;;;;;;;21.50;13.43;;;15.00;95.20;;;;;;5060244;28;20478;-60
2023/06/25 04:25:57;;;;;;;23.87;14.33;;;15.00;95.30;;;;;;5066831;28;20841;-61
2023/06/25 04:28:24;;;;;;;20.93;13.90;;;15.00;95.60;;;;;;5063487;28;20500;-61
2023/06/25 04:30:51;;;;;;;20.60;14.10;;;15.00;95.60;;;;;;5075467;27;20524;-61
2023/06/25 04:33:20;;;;;;;27.50;15.87;;;15.10;95.80;;;;;;5082016;27;20478;-61
2023/06/25 04:35:47;;;;;;;31.20;14.73;;;15.20;96.00;;;;;;5064847;27;20488;-61
2023/06/25 04:38:15;;;;;;;23.53;14.50;;;15.20;96.00;;;;;;5069072;28;20463;-61
2023/06/25 04:40:41;;;;;;;23.20;14.27;;;15.20;96.00;;;;;;5071375;28;20479;-61
2023/06/25 04:43:08;;;;;;;29.30;13.43;;;15.30;96.20;;;;;;5078063;27;20472;-61
2023/06/25 04:45:35;;;;;;;28.43;14.47;;;15.30;96.50;;;;;;5064783;27;20489;-61
2023/06/25 04:48:02;;;;;;;20.20;14.50;;;15.30;96.90;;;;;;5083071;27;20791;-60
2023/06/25 04:50:30;;;;;;;34.87;15.07;;;15.20;97.50;;;;;;5072758;28;20478;-60
2023/06/25 04:52:57;;;;;;;23.83;15.97;;;15.20;97.90;;;;;;5082653;27;21006;-61
2023/06/25 04:55:23;;;;;;;21.27;15.17;;;15.30;98.30;;;;;;5087850;27;20997;-61
2023/06/25 04:57:51;;;;;;;28.20;14.37;;;15.30;97.90;;;;;;5095965;27;20497;-60
2023/06/25 05:00:18;;;;;;;20.10;14.07;;;15.50;97.80;;;;;;5052966;27;20929;-61
2023/06/25 05:02:44;;;;;;;21.77;14.73;;;15.60;98.10;;;;;;5076389;27;20990;-60
2023/06/25 05:05:11;;;;;;;25.67;14.60;;;15.70;98.30;;;;;;5090156;27;21290;-61
2023/06/25 05:07:39;;;;;;;20.03;14.60;;;15.90;98.60;;;;;;5075006;27;20852;-61
2023/06/25 05:10:07;;;;;;;20.97;14.00;;;16.00;98.60;;;;;;5073864;28;20486;-61
2023/06/25 05:12:33;;;;;;;20.70;14.23;;;16.10;98.50;;;;;;5072092;28;20478;-60
2023/06/25 05:15:01;;;;;;;22.53;16.40;;;16.30;98.70;;;;;;5073848;28;21041;-60
2023/06/25 05:17:27;;;;;;;22.00;15.50;;;16.40;99.30;;;;;;5073837;28;21123;-60
2023/06/25 05:19:54;;;;;;;23.13;16.63;;;16.50;99.20;;;;;;5054060;28;20948;-61
2023/06/25 05:22:21;;;;;;;24.83;16.43;;;16.70;99.30;;;;;;5056392;28;20500;-61
2023/06/25 05:24:49;;;;;;;23.30;17.43;;;16.80;99.20;;;;;;5071728;28;20886;-61
2023/06/25 05:27:15;;;;;;;24.67;17.70;;;17.00;99.40;;;;;;5073146;28;21510;-61
2023/06/25 05:29:42;;;;;;;23.47;16.23;;;17.20;99.10;;;;;;5076423;28;20670;-61
2023/06/25 05:32:09;;;;;;;20.93;15.90;;;17.40;99.20;;;;;;5069294;28;20471;-61
2023/06/25 05:34:36;;;;;;;22.20;15.20;;;16.80;98.80;;;;;;5055051;28;20745;-61
2023/06/25 05:37:02;;;;;;;25.70;18.27;;;17.70;99.20;;;;;;5066995;27;20960;-61
2023/06/25 05:39:29;;;;;;;18.00;15.50;;;17.80;99.50;;;;;;5063181;28;21045;-61
2023/06/25 05:41:58;;;;;;;38.33;15.87;;;18.00;99.10;;;;;;5068018;28;20541;-61
2023/06/25 05:44:25;;;;;;;19.47;14.37;;;18.10;99.00;;;;;;5069597;28;20480;-60
2023/06/25 05:46:52;;;;;;;24.70;16.20;;;18.20;98.90;;;;;;5077810;28;20478;-60
2023/06/25 05:49:18;;;;;;;20.57;15.23;;;18.40;98.60;;;;;;5060740;28;20479;-60
2023/06/25 05:51:45;;;;;;;20.90;16.17;;;18.50;98.40;;;;;;5040393;28;20491;-60
2023/06/25 05:54:12;;;;;;;18.83;12.90;;;18.60;98.10;;;;;;5048148;28;20539;-60
2023/06/25 05:56:38;;;;;;;18.33;15.07;;;18.80;98.20;;;;;;5072745;28;21083;-60
2023/06/25 05:59:06;;;;;;;19.30;14.87;;;19.00;97.80;;;;;;5054257;28;20999;-61
2023/06/25 06:01:33;;;;;;;18.53;15.47;;;19.00;97.60;;;;;;5066834;28;20478;-61
2023/06/25 06:04:00;;;;;;;24.80;15.10;;;19.20;97.80;;;;;;5061184;27;21058;-61
2023/06/25 06:06:27;;;;;;;19.50;14.13;;;19.30;97.90;;;;;;5073052;27;21040;-61
2023/06/25 06:08:54;;;;;;;19.80;14.50;;;19.50;97.30;;;;;;5066635;27;20476;-61
2023/06/25 06:11:20;;;;;;;17.33;13.37;;;19.60;97.20;;;;;;5079390;28;20475;-61
2023/06/25 06:13:47;;;;;;;18.50;14.20;;;19.80;97.00;;;;;;5072749;28;20483;-61
2023/06/25 06:16:15;;;;;;;25.73;16.37;;;19.90;96.90;;;;;;5071356;28;20484;-61
2023/06/25 06:18:42;;;;;;;15.93;11.53;;;20.10;97.00;;;;;;5069445;28;20497;-61
2023/06/25 06:21:09;;;;;;;18.37;13.90;;;20.20;96.40;;;;;;5071469;27;20481;-61
2023/06/25 06:23:36;;;;;;;18.80;13.83;;;20.30;96.10;;;;;;5079405;28;20975;-61
2023/06/25 06:26:02;;;;;;;18.97;11.63;;;20.50;95.70;;;;;;5063943;28;20532;-61
2023/06/25 06:28:29;;;;;;;16.83;13.00;;;20.60;95.30;;;;;;5081940;27;20802;-61
2023/06/25 06:30:56;;;;;;;18.33;13.17;;;20.80;95.10;;;;;;5076753;28;20902;-61
2023/06/25 06:33:24;;;;;;;23.13;12.27;;;21.00;95.30;;;;;;5071957;28;20926;-61
2023/06/25 06:35:50;;;;;;;15.93;11.60;;;21.10;95.00;;;;;;5081352;28;20463;-61
2023/06/25 06:38:17;;;;;;;16.73;12.80;;;21.30;94.60;;;;;;5059465;28;20480;-61
2023/06/25 06:40:44;;;;;;;27.20;12.27;;;21.50;94.30;;;;;;5051998;28;20489;-60
2023/06/25 06:43:11;;;;;;;15.30;11.70;;;21.70;94.10;;;;;;5067714;28;20563;-60
2023/06/25 06:45:37;;;;;;;16.80;12.67;;;21.90;94.80;;;;;;5080034;28;20470;-61
2023/06/25 06:48:05;;;;;;;15.53;11.10;;;22.10;94.20;;;;;;5064399;28;20509;-60
2023/06/25 06:50:33;;;;;;;14.73;11.47;;;22.30;93.80;;;;;;5052823;28;21013;-61
2023/06/25 06:52:59;;;;;;;13.80;11.10;;;22.50;93.60;;;;;;5065595;28;20539;-61
2023/06/25 06:55:26;;;;;;;19.73;10.27;;;22.70;93.40;;;;;;5064740;28;20524;-61
2023/06/25 06:57:53;;;;;;;14.23;11.67;;;22.90;93.90;;;;;;5088721;28;20709;-60
2023/06/25 07:00:20;;;;;;;13.33;10.37;;;23.10;92.80;;;;;;5063608;27;20477;-60
2023/06/25 07:02:47;;;;;;;23.70;9.87;;;23.50;92.40;;;;;;5089560;27;20494;-60
2023/06/25 07:05:13;;;;;;;12.90;10.67;;;23.70;92.50;;;;;;5084693;28;20477;-60
2023/06/25 07:07:42;;;;;;;14.30;11.60;;;23.90;91.80;;;;;;5079166;28;20483;-61
2023/06/25 07:10:09;;;;;;;14.77;11.13;;;24.30;91.20;;;;;;5081397;27;20470;-60
2023/06/25 07:12:37;;;;;;;13.00;9.20;;;24.60;91.40;;;;;;5086607;28;20484;-61
2023/06/25 07:15:04;;;;;;;14.93;10.80;;;24.90;90.90;;;;;;5071078;27;20535;-61
2023/06/25 07:17:31;;;;;;;12.07;9.67;;;24.40;90.70;;;;;;5062675;28;20486;-62
2023/06/25 07:19:58;;;;;;;12.07;10.03;;;25.50;90.20;;;;;;5083451;28;20749;-61
2023/06/25 07:22:24;;;;;;;14.03;9.37;;;25.70;90.50;;;;;;5076961;28;20940;-61
2023/06/25 07:24:52;;;;;;;12.43;8.67;;;25.90;87.20;;;;;;5077911;27;20490;-61
2023/06/25 07:27:19;;;;;;;13.57;10.90;;;;;;;;;;5090911;27;20483;-61
2023/06/25 07:29:46;;;;;;;10.13;8.83;;;26.30;86.50;;;;;;5075860;27;21086;-61
2023/06/25 07:32:13;;;;;;;8.90;8.00;;;26.50;85.50;;;;;;5084510;28;21099;-61
2023/06/25 07:34:39;;;;;;;10.27;9.20;;;26.70;85.40;;;;;;5084415;27;20483;-62
2023/06/25 07:37:07;;;;;;;10.20;9.10;;;26.90;84.30;;;;;;5056510;28;21071;-62
2023/06/25 07:39:34;;;;;;;8.30;7.50;;;27.20;85.30;;;;;;5092843;27;21009;-62
2023/06/25 07:42:02;;;;;;;19.83;10.20;;;27.40;84.20;;;;;;5079943;28;20487;-62
2023/06/25 07:44:29;;;;;;;9.80;8.83;;;27.60;83.70;;;;;;5077938;28;20477;-62
2023/06/25 07:46:55;;;;;;;15.20;9.47;;;27.90;82.20;;;;;;5076956;28;20473;-62
2023/06/25 07:49:22;;;;;;;9.80;8.80;;;28.10;81.70;;;;;;5081942;28;21241;-62
2023/06/25 07:51:50;;;;;;;10.27;9.27;;;28.30;82.20;;;;;;5090019;28;21120;-62
2023/06/25 07:54:17;;;;;;;22.70;9.20;;;28.50;79.90;;;;;;5054357;28;20581;-62
2023/06/25 07:56:44;;;;;;;9.17;7.80;;;28.70;77.90;;;;;;5089231;28;20477;-62
2023/06/25 07:59:13;;;;;;;11.87;6.03;;;28.80;75.10;;;;;;5057720;28;20504;-61
2023/06/25 08:01:39;;;;;;;10.40;6.50;;;28.80;71.50;;;;;;5092954;28;20494;-62
2023/06/25 08:04:06;;;;;;;8.10;7.00;;;28.80;69.50;;;;;;5075177;28;20449;-62
2023/06/25 08:06:33;;;;;;;19.27;8.77;;;28.90;67.20;;;;;;5091341;28;20855;-62
2023/06/25 08:08:59;;;;;;;9.83;6.00;;;28.90;68.10;;;;;;5059470;28;20957;-62
2023/06/25 08:11:29;;;;;;;8.97;7.60;;;29.00;66.80;;;;;;5091590;28;20508;-62
2023/06/25 08:13:55;;;;;;;8.70;7.70;;;29.00;64.10;;;;;;5060297;28;20471;-63
2023/06/25 08:16:23;;;;;;;13.03;7.60;;;29.00;66.20;;;;;;5083591;27;20454;-62
2023/06/25 08:18:50;;;;;;;8.97;7.43;;;29.10;64.80;;;;;;5046271;28;20478;-62
2023/06/25 08:21:17;;;;;;;8.83;5.50;;;29.20;65.70;;;;;;5076441;28;20944;-63
2023/06/25 08:23:43;;;;;;;9.20;6.37;;;29.50;65.20;;;;;;5067953;28;20492;-62
2023/06/25 08:26:12;;;;;;;5.20;4.70;;;29.60;63.40;;;;;;5081304;27;20893;-62
2023/06/25 08:28:39;;;;;;;18.07;16.67;;;29.80;64.60;;;;;;5083660;27;20793;-62
2023/06/25 08:31:06;;;;;;;10.40;5.37;;;29.90;61.20;;;;;;5063890;27;21023;-62
2023/06/25 08:33:34;;;;;;;7.20;5.47;;;30.00;61.90;;;;;;5079139;27;20520;-62
2023/06/25 08:36:01;;;;;;;6.73;5.20;;;30.10;63.70;;;;;;5076968;27;20454;-62
2023/06/25 08:38:28;;;;;;;11.67;5.00;;;30.30;63.00;;;;;;5028071;28;20497;-62
2023/06/25 08:40:56;;;;;;;14.13;6.00;;;30.40;60.60;;;;;;5050728;28;20886;-62
2023/06/25 08:43:22;;;;;;;6.33;5.33;;;30.50;63.20;;;;;;5076384;27;20454;-62
2023/06/25 08:45:49;;;;;;;9.23;5.90;;;30.80;63.00;;;;;;5067341;28;20502;-62
2023/06/25 08:48:17;;;;;;;5.70;5.20;;;30.80;60.00;;;;;;5051078;28;20457;-62
2023/06/25 08:50:51;;;;;;;7.27;6.57;;;30.80;59.80;;;;;;5061794;28;20562;-61
2023/06/25 08:53:18;;;;;;;7.30;6.70;;;30.60;60.10;;;;;;5077026;28;20490;-62
2023/06/25 08:55:48;;;;;;;6.97;5.80;;;30.60;60.30;;;;;;5061274;28;20477;-63
2023/06/25 08:58:15;;;;;;;9.70;6.70;;;30.80;61.30;;;;;;5069070;28;20957;-62
2023/06/25 09:00:42;;;;;;;6.10;5.60;;;30.80;60.50;;;;;;5055384;27;20503;-62
2023/06/25 09:03:08;;;;;;;6.13;5.63;;;30.40;59.80;;;;;;5095081;27;20485;-62
2023/06/25 09:05:35;;;;;;;12.20;6.53;;;30.00;58.60;;;;;;5064089;28;20469;-63
2023/06/25 09:08:03;;;;;;;7.70;7.00;;;30.00;59.30;;;;;;5042021;28;20513;-62
2023/06/25 09:10:31;;;;;;;8.50;6.90;;;29.80;60.40;;;;;;5069502;28;20456;-62
2023/06/25 09:13:01;;;;;;;11.17;7.63;;;29.70;59.80;;;;;;5093975;28;20456;-63
2023/06/25 09:15:29;;;;;;;11.80;8.23;;;29.70;59.60;;;;;;5089882;28;20821;-62
2023/06/25 09:17:57;;;;;;;10.53;8.27;;;29.60;58.40;;;;;;5084224;28;20454;-62
2023/06/25 09:20:24;;;;;;;9.63;7.57;;;29.80;61.30;;;;;;5058653;28;20464;-63
2023/06/25 09:22:51;;;;;;;6.93;6.00;;;30.00;61.00;;;;;;5067656;28;20490;-62
2023/06/25 09:25:20;;;;;;;6.20;5.60;;;30.30;61.30;;;;;;5073858;28;20489;-63
2023/06/25 09:27:48;;;;;;;13.23;6.23;;;30.50;58.60;;;;;;5091213;28;20878;-62
2023/06/25 09:30:17;;;;;;;5.43;4.93;;;30.70;58.40;;;;;;5091286;28;20910;-62
2023/06/25 09:32:51;;;;;;;5.57;5.07;;;31.00;58.30;;;;;;5053477;28;20455;-62
2023/06/25 09:35:19;;;;;;;6.20;5.40;;;31.10;57.40;;;;;;5030962;28;20440;-62
2023/06/25 09:37:46;;;;;;;4.60;4.20;;;31.30;60.10;;;;;;5061946;27;20458;-63
2023/06/25 09:40:13;;;;;;;5.80;5.30;;;31.60;59.40;;;;;;5087183;27;20489;-63
2023/06/25 09:42:55;;;;;;;10.67;7.80;;;31.50;55.40;;;;;;5065389;27;21085;-62
2023/06/25 09:45:23;;;;;;;9.73;8.23;;;31.70;59.60;;;;;;5061582;28;20467;-62
2023/06/25 09:47:52;;;;;;;15.70;8.87;;;31.80;58.50;;;;;;5079193;28;20511;-63
2023/06/25 09:50:20;;;;;;;5.93;5.43;;;31.80;58.90;;;;;;5081578;28;20456;-62
2023/06/25 09:52:54;;;;;;;5.70;5.20;;;31.90;56.90;;;;;;5080251;28;20470;-62
2023/06/25 09:55:21;;;;;;;6.80;5.20;;;32.00;57.20;;;;;;5063929;28;20456;-63
2023/06/25 09:57:48;;;;;;;8.30;6.33;;;32.10;59.10;;;;;;5070718;28;22028;-63
2023/06/25 10:00:17;;;;;;;7.10;6.40;;;31.80;56.70;;;;;;5057644;28;20514;-62
2023/06/25 10:02:45;;;;;;;7.57;6.80;;;31.90;58.30;;;;;;5070051;28;20542;-62
2023/06/25 10:05:12;;;;;;;5.20;4.80;;;32.00;59.10;;;;;;5055497;28;20899;-62
2023/06/25 10:07:39;;;;;;;9.07;5.13;;;32.10;57.90;;;;;;5062895;28;20479;-63
2023/06/25 10:10:07;;;;;;;6.60;6.00;;;32.00;56.40;;;;;;5067058;28;20810;-63
2023/06/25 10:12:34;;;;;;;5.93;5.27;;;32.00;55.00;;;;;;5069663;28;20973;-62
2023/06/25 10:15:02;;;;;;;10.30;5.17;;;31.70;54.10;;;;;;5050973;28;20456;-63
2023/06/25 10:17:31;;;;;;;9.43;6.50;;;30.90;54.60;;;;;;5076095;28;20637;-62
2023/06/25 10:20:00;;;;;;;6.73;6.00;;;31.70;57.60;;;;;;5060151;28;20456;-62
2023/06/25 10:22:28;;;;;;;9.63;5.80;;;31.80;56.10;;;;;;5064041;28;20456;-62
2023/06/25 10:24:56;;;;;;;6.27;5.70;;;31.90;56.60;;;;;;5058096;28;20893;-62
2023/06/25 10:27:28;;;;;;;4.93;4.50;;;32.10;57.30;;;;;;5078714;28;20475;-62
2023/06/25 10:29:57;;;;;;;4.83;4.43;;;32.30;56.80;;;;;;5052107;28;20536;-62
2023/06/25 10:32:25;;;;;;;8.73;4.73;;;32.60;57.70;;;;;;5071841;28;20813;-63
2023/06/25 10:34:55;;;;;;;4.97;4.57;;;32.70;58.60;;;;;;5057892;28;20941;-62
2023/06/25 10:37:23;;;;;;;6.27;5.67;;;32.60;54.90;;;;;;5057315;28;20497;-62
2023/06/25 10:39:50;;;;;;;7.87;6.20;;;32.20;53.70;;;;;;5061721;28;20778;-62
2023/06/25 10:42:17;;;;;;;24.00;7.30;;;32.10;56.60;;;;;;5061123;28;20631;-63
2023/06/25 10:44:44;;;;;;;6.50;5.90;;;32.20;57.20;;;;;;5055365;28;20517;-61
2023/06/25 10:47:11;;;;;;;5.80;5.30;;;32.30;56.20;;;;;;5070778;28;20820;-63
2023/06/25 10:49:38;;;;;;;20.93;5.37;;;32.40;55.20;;;;;;5056027;28;20512;-63
2023/06/25 10:52:07;;;;;;;8.67;6.17;;;32.40;55.20;;;;;;5038114;28;20576;-63
2023/06/25 10:54:34;;;;;;;6.30;5.80;;;32.50;55.80;;;;;;5035176;28;20890;-63
2023/06/25 10:57:07;;;;;;;9.53;5.10;;;32.60;54.10;;;;;;5046438;28;20457;-62
2023/06/25 10:59:34;;;;;;;5.57;5.07;;;32.70;56.20;;;;;;5038214;28;20461;-63
2023/06/25 11:02:15;;;;;;;8.63;5.60;;;32.90;54.60;;;;;;5040739;28;20467;-62
2023/06/25 11:04:43;;;;;;;5.50;5.00;;;33.10;56.10;;;;;;5040075;28;20485;-63
2023/06/25 11:07:12;;;;;;;6.00;5.43;;;33.10;54.70;;;;;;5033726;28;20458;-63
2023/06/25 11:09:39;;;;;;;10.53;5.23;;;33.30;54.20;;;;;;5035746;28;20475;-63
2023/06/25 11:12:07;;;;;;;7.00;5.30;;;33.10;53.50;;;;;;5028382;28;20464;-63
2023/06/25 11:14:34;;;;;;;5.73;5.23;;;33.20;55.10;;;;;;5041442;28;20955;-63
2023/06/25 11:17:00;;;;;;;9.63;5.27;;;33.20;52.80;;;;;;5027532;28;20545;-63
2023/06/25 11:19:29;;;;;;;7.00;6.30;;;33.20;54.70;;;;;;5045813;28;20469;-62
2023/06/25 11:21:56;;;;;;;8.33;6.13;;;33.20;53.90;;;;;;5041077;28;20483;-63
2023/06/25 11:24:24;;;;;;;11.57;5.87;;;33.10;53.80;;;;;;5048998;28;20526;-62
2023/06/25 11:26:57;;;;;;;5.90;5.40;;;33.30;54.30;;;;;;5037657;28;20462;-62
2023/06/25 11:29:34;;;;;;;5.60;5.10;;;33.50;54.70;;;;;;5037001;28;20493;-63
2023/06/25 11:32:02;;;;;;;6.27;5.77;;;33.50;52.90;;;;;;5022860;28;21071;-63
2023/06/25 11:34:29;;;;;;;6.23;5.63;;;33.60;54.00;;;;;;5040754;28;20455;-63
2023/06/25 11:36:56;;;;;;;9.80;6.40;;;33.60;54.30;;;;;;5035725;28;20466;-63
2023/06/25 11:39:24;;;;;;;5.53;5.13;;;33.50;51.70;;;;;;5020851;28;20665;-63
2023/06/25 11:41:50;;;;;;;5.17;4.73;;;33.40;53.40;;;;;;5028784;28;20502;-63
2023/06/25 11:44:17;;;;;;;11.23;6.23;;;33.50;54.00;;;;;;5042882;28;20985;-63
2023/06/25 11:46:44;;;;;;;5.67;5.17;;;33.60;54.50;;;;;;5040073;28;20465;-62
2023/06/25 11:49:11;;;;;;;7.33;5.93;;;33.50;53.60;;;;;;5034788;28;20471;-63
2023/06/25 11:51:38;;;;;;;9.43;5.80;;;33.60;51.90;;;;;;5032479;28;20479;-63
2023/06/25 11:54:05;;;;;;;5.30;4.90;;;33.70;53.60;;;;;;5045913;28;20972;-63
2023/06/25 11:56:33;;;;;;;7.37;6.30;;;33.80;52.80;;;;;;5039280;28;20613;-63
2023/06/25 11:58:59;;;;;;;8.87;6.37;;;33.40;50.10;;;;;;5029018;28;20796;-63
2023/06/25 12:01:26;;;;;;;6.20;5.60;;;33.30;51.00;;;;;;5038538;28;21079;-63
2023/06/25 12:03:53;;;;;;;5.80;5.30;;;33.30;51.80;;;;;;5049230;28;20477;-63
2023/06/25 12:06:20;;;;;;;7.80;6.60;;;33.10;50.40;;;;;;5035790;28;20467;-63
2023/06/25 12:08:47;;;;;;;6.87;6.17;;;33.20;48.70;;;;;;5055954;28;20893;-63
2023/06/25 12:11:13;;;;;;;6.60;6.10;;;33.10;52.00;;;;;;5032903;28;20565;-62
2023/06/25 12:13:41;;;;;;;8.60;6.30;;;33.30;51.40;;;;;;5040172;28;20457;-63
2023/06/25 12:16:08;;;;;;;7.43;6.93;;;33.20;51.70;;;;;;5018629;28;20559;-64
2023/06/25 12:18:35;;;;;;;7.67;5.97;;;33.40;51.30;;;;;;5045880;28;20992;-63
2023/06/25 12:21:01;;;;;;;9.23;7.53;;;33.60;52.20;;;;;;5043840;28;20563;-63
2023/06/25 12:23:28;;;;;;;6.63;6.00;;;33.80;49.20;;;;;;5038835;28;20471;-63
2023/06/25 12:25:55;;;;;;;6.13;5.63;;;34.00;52.40;;;;;;5033095;28;20454;-63
2023/06/25 12:28:21;;;;;;;12.00;5.90;;;34.20;49.40;;;;;;5031482;28;20459;-63
2023/06/25 12:30:50;;;;;;;7.10;6.30;;;34.10;46.20;;;;;;5025099;28;20462;-63
2023/06/25 12:33:16;;;;;;;27.93;8.00;;;34.40;51.20;;;;;;5053365;28;20908;-63
2023/06/25 12:35:43;;;;;;;9.53;5.97;;;34.50;48.70;;;;;;5063506;28;20481;-63